createdAt,value
2022-09-20T00:01:32.407Z,101860.81
2022-09-20T00:04:01.407Z,101874.47
2022-09-20T00:06:31.255Z,101869.28
2022-09-20T00:08:59.694Z,101862.47
2022-09-20T00:11:28.738Z,101866.56
2022-09-20T00:13:57.217Z,101867.34
2022-09-20T00:16:32.962Z,101881.97
2022-09-20T00:19:03.826Z,101878.44
2022-09-20T00:21:32.144Z,101870.66
2022-09-20T00:23:58.979Z,101866.28
2022-09-20T00:26:27.522Z,101866.41
2022-09-20T00:28:55.045Z,101872.44
2022-09-20T00:31:21.908Z,101871.59
2022-09-20T00:34:07.301Z,101864.66
2022-09-20T00:36:33.937Z,101875.03
2022-09-20T00:39:01.995Z,101876.13
2022-09-20T00:41:30.135Z,101872.16
2022-09-20T00:43:57.209Z,101867.25
2022-09-20T00:46:35.265Z,101879.78
2022-09-20T00:49:12.020Z,101877.56
2022-09-20T00:51:41.300Z,101876.22
2022-09-20T00:54:10.796Z,101880.03
2022-09-20T00:56:41.562Z,101883.03
2022-09-20T00:59:26.637Z,101879.34
2022-09-20T01:02:03.125Z,101879.75
2022-09-20T01:04:30.412Z,101880.41
2022-09-20T01:07:00.789Z,101888.44
2022-09-20T01:09:27.419Z,101876.97
2022-09-20T01:11:56.825Z,101875.88
2022-09-20T01:14:26.731Z,101878.19
2022-09-20T01:16:56.540Z,101873.53
2022-09-20T01:19:57.165Z,101883.47
2022-09-20T01:22:49.071Z,101879.63
2022-09-20T01:25:44.938Z,101885.47
2022-09-20T01:28:11.573Z,101884.91
2022-09-20T01:30:44.251Z,101878.50
2022-09-20T01:33:28.698Z,101883.25
2022-09-20T01:35:58.842Z,101888.13
2022-09-20T01:38:28.232Z,101881.53
2022-09-20T01:41:12.387Z,101888.75
2022-09-20T01:44:07.048Z,101889.16
2022-09-20T01:46:36.160Z,101881.53
2022-09-20T01:49:20.511Z,101882.59
2022-09-20T01:52:24.174Z,101886.38
2022-09-20T01:55:11.962Z,101883.22
2022-09-20T01:57:38.402Z,101885.13
2022-09-20T02:00:13.124Z,101883.38
2022-09-20T02:02:51.500Z,101881.72
2022-09-20T02:05:18.069Z,101879.13
2022-09-20T02:08:03.253Z,101885.00
2022-09-20T02:10:35.933Z,101881.56
2022-09-20T02:13:31.093Z,101872.19
2022-09-20T02:16:22.549Z,101879.94
2022-09-20T02:19:08.059Z,101873.72
2022-09-20T02:22:11.626Z,101877.91
2022-09-20T02:25:04.690Z,101871.66
2022-09-20T02:27:50.019Z,101881.63
2022-09-20T02:30:41.176Z,101871.03
2022-09-20T02:33:51.036Z,101874.88
2022-09-20T02:36:20.568Z,101875.28
2022-09-20T02:39:15.755Z,101876.69
2022-09-20T02:41:48.414Z,101872.88
2022-09-20T02:44:46.470Z,101867.31
2022-09-20T02:47:41.405Z,101862.13
2022-09-20T02:50:23.146Z,101862.00
2022-09-20T02:53:05.464Z,101863.66
2022-09-20T02:55:32.048Z,101877.13
2022-09-20T02:58:21.454Z,101882.06
2022-09-20T03:01:17.525Z,101879.22
2022-09-20T03:03:53.110Z,101876.34
2022-09-20T03:06:19.628Z,101877.84
2022-09-20T03:09:25.919Z,101879.38
2022-09-20T03:12:29.618Z,101882.53
2022-09-20T03:15:10.623Z,101878.97
2022-09-20T03:18:00.759Z,101874.47
2022-09-20T03:20:39.433Z,101883.06
2022-09-20T03:23:37.060Z,101878.72
2022-09-20T03:26:28.381Z,101880.47
2022-09-20T03:29:21.046Z,101880.34
2022-09-20T03:32:08.853Z,101876.81
2022-09-20T03:34:59.738Z,101877.63
2022-09-20T03:38:00.180Z,101875.06
2022-09-20T03:40:33.950Z,101882.69
2022-09-20T03:43:21.057Z,101874.22
2022-09-20T03:46:04.134Z,101868.38
2022-09-20T03:48:37.476Z,101869.44
2022-09-20T03:51:13.090Z,101871.19
2022-09-20T03:54:06.789Z,101879.94
2022-09-20T03:56:52.164Z,101879.94
2022-09-20T03:59:29.938Z,101884.84
2022-09-20T04:02:11.804Z,101878.56
2022-09-20T04:04:56.304Z,101881.59
2022-09-20T04:07:37.770Z,101886.53
2022-09-20T04:10:19.171Z,101884.63
2022-09-20T04:13:03.211Z,101889.50
2022-09-20T04:15:41.970Z,101888.44
2022-09-20T04:18:37.667Z,101882.84
2022-09-20T04:21:23.894Z,101892.00
2022-09-20T04:23:56.187Z,101886.69
2022-09-20T04:26:28.304Z,101892.56
2022-09-20T04:28:54.751Z,101900.19
2022-09-20T04:31:42.996Z,101905.25
2022-09-20T04:34:52.596Z,101903.50
2022-09-20T04:37:33.134Z,101902.50
2022-09-20T04:40:31.902Z,101912.47
2022-09-20T04:43:18.768Z,101914.00
2022-09-20T04:46:30.111Z,101919.75
2022-09-20T04:49:05.441Z,101915.09
2022-09-20T04:51:54.429Z,101910.59
2022-09-20T04:54:44.654Z,101912.91
2022-09-20T04:57:45.906Z,101916.88
2022-09-20T05:00:19.733Z,101913.34
2022-09-20T05:03:08.112Z,101921.81
2022-09-20T05:05:55.937Z,101929.44
2022-09-20T05:08:44.020Z,101927.56
2022-09-20T05:11:31.606Z,101930.81
2022-09-20T05:14:17.126Z,101931.53
2022-09-20T05:17:07.200Z,101935.59
2022-09-20T05:19:55.897Z,101940.69
2022-09-20T05:22:50.493Z,101949.13
2022-09-20T05:25:59.178Z,101949.97
2022-09-20T05:28:34.269Z,101945.56
2022-09-20T05:31:15.632Z,101944.38
2022-09-20T05:33:57.676Z,101939.03
2022-09-20T05:36:48.289Z,101940.41
2022-09-20T05:39:18.534Z,101934.00
2022-09-20T05:41:57.085Z,101939.72
2022-09-20T05:44:23.574Z,101936.03
2022-09-20T05:47:06.498Z,101942.59
2022-09-20T05:49:47.107Z,101937.13
2022-09-20T05:52:58.718Z,101938.63
2022-09-20T05:56:02.816Z,101939.16
2022-09-20T05:58:42.517Z,101941.34
2022-09-20T06:01:18.932Z,101931.53
2022-09-20T06:03:54.613Z,101939.72
2022-09-20T06:07:00.654Z,101938.47
2022-09-20T06:09:56.781Z,101948.44
2022-09-20T06:12:35.745Z,101943.09
2022-09-20T06:15:15.181Z,101942.84
2022-09-20T06:17:51.083Z,101945.94
2022-09-20T06:20:52.110Z,101952.53
2022-09-20T06:23:19.010Z,101951.28
2022-09-20T06:25:54.078Z,101963.03
2022-09-20T06:28:23.527Z,101958.66
2022-09-20T06:30:52.322Z,101966.84
2022-09-20T06:33:26.823Z,101965.34
2022-09-20T06:36:24.669Z,101969.81
2022-09-20T06:39:28.857Z,101974.03
2022-09-20T06:41:56.046Z,101974.72
2022-09-20T06:44:22.631Z,101974.25
2022-09-20T06:46:49.428Z,101979.69
2022-09-20T06:49:15.921Z,101976.91
2022-09-20T06:51:43.519Z,101976.91
2022-09-20T06:54:18.801Z,101981.25
2022-09-20T06:56:47.398Z,101980.47
2022-09-20T06:59:15.157Z,101970.84
2022-09-20T07:01:42.817Z,101980.38
2022-09-20T07:04:09.731Z,101978.81
2022-09-20T07:06:36.369Z,101977.94
2022-09-20T07:09:04.305Z,101986.44
2022-09-20T07:11:32.203Z,101984.28
2022-09-20T07:13:59.407Z,101993.72
2022-09-20T07:16:26.553Z,101996.75
2022-09-20T07:18:53.661Z,101992.63
2022-09-20T07:21:21.201Z,101995.22
2022-09-20T07:23:51.404Z,101995.06
2022-09-20T07:26:19.984Z,101992.97
2022-09-20T07:28:46.669Z,101996.69
2022-09-20T07:31:13.984Z,101997.97
2022-09-20T07:33:40.835Z,101992.53
2022-09-20T07:36:07.755Z,101995.78
2022-09-20T07:38:34.380Z,101996.09
2022-09-20T07:41:02.841Z,101997.53
2022-09-20T07:43:30.601Z,101995.03
2022-09-20T07:45:59.434Z,101993.38
2022-09-20T07:48:29.595Z,102001.81
2022-09-20T07:51:08.600Z,102004.53
2022-09-20T07:53:36.367Z,102007.59
2022-09-20T07:56:05.046Z,102013.34
2022-09-20T07:58:34.120Z,102017.91
2022-09-20T08:01:09.282Z,102021.72
2022-09-20T08:03:36.690Z,102014.25
2022-09-20T08:06:08.934Z,102018.16
2022-09-20T08:08:37.497Z,102012.16
2022-09-20T08:11:06.512Z,102015.44
2022-09-20T08:16:32.588Z,102017.97
2022-09-20T08:19:01.313Z,102012.75
2022-09-20T08:21:31.615Z,102017.38
2022-09-20T08:23:59.436Z,102013.16
2022-09-20T08:26:28.171Z,102016.75
2022-09-20T08:28:57.443Z,102020.03
2022-09-20T08:31:26.786Z,102020.38
2022-09-20T08:33:54.578Z,102019.41
2022-09-20T08:36:24.455Z,102023.16
2022-09-20T08:42:02.964Z,102025.91
2022-09-20T08:44:47.226Z,102026.06
2022-09-20T08:47:25.548Z,102029.81
2022-09-20T08:49:57.733Z,102035.50
2022-09-20T08:52:37.001Z,102024.41
2022-09-20T08:55:27.994Z,102037.94
2022-09-20T08:57:57.311Z,102039.75
2022-09-20T09:00:31.960Z,102035.84
2022-09-20T09:03:03.813Z,102040.56
2022-09-20T09:05:39.035Z,102042.34
2022-09-20T09:08:16.470Z,102041.00
2022-09-20T09:10:54.149Z,102043.75
2022-09-20T09:13:47.636Z,102043.75
2022-09-20T09:16:23.060Z,102041.78
2022-09-20T09:18:53.109Z,102042.75
2022-09-20T09:21:23.007Z,102041.63
2022-09-20T09:24:14.467Z,102040.63
2022-09-20T09:26:43.334Z,102046.88
2022-09-20T09:29:23.684Z,102033.59
2022-09-20T09:31:56.509Z,102039.78
2022-09-20T09:34:30.607Z,102042.41
2022-09-20T09:36:58.375Z,102035.97
2022-09-20T09:39:33.822Z,102042.03
2022-09-20T09:42:01.197Z,102037.75
2022-09-20T09:44:30.638Z,102039.47
2022-09-20T09:46:57.580Z,102034.38
2022-09-20T09:49:36.273Z,102032.97
2022-09-20T09:52:14.746Z,102034.66
2022-09-20T09:54:42.206Z,102034.22
2022-09-20T09:57:11.854Z,102026.69
2022-09-20T09:59:49.330Z,102030.22
2022-09-20T10:02:49.992Z,102029.44
2022-09-20T10:05:21.297Z,102039.66
2022-09-20T10:08:22.188Z,102039.88
2022-09-20T10:11:13.809Z,102036.81
2022-09-20T10:14:07.691Z,102031.91
2022-09-20T10:17:12.276Z,102037.78
2022-09-20T10:19:51.251Z,102036.47
2022-09-20T10:23:07.086Z,102031.91
2022-09-20T10:26:22.781Z,102031.44
2022-09-20T10:29:27.009Z,102029.78
2022-09-20T10:32:05.925Z,102031.16
2022-09-20T10:35:07.351Z,102035.69
2022-09-20T10:37:54.138Z,102041.03
2022-09-20T10:41:08.334Z,102034.56
2022-09-20T10:43:41.885Z,102037.97
2022-09-20T10:46:31.787Z,102037.44
2022-09-20T10:49:26.772Z,102037.78
2022-09-20T10:52:07.487Z,102037.31
2022-09-20T10:55:03.664Z,102041.66
2022-09-20T10:57:58.630Z,102022.78
2022-09-20T11:00:46.807Z,102035.91
2022-09-20T11:03:33.192Z,102052.28
2022-09-20T11:06:44.164Z,102045.75
2022-09-20T11:09:17.467Z,102044.47
2022-09-20T12:04:57.682Z,102062.59
2022-09-20T12:07:28.911Z,102059.59
2022-09-20T12:10:00.603Z,102060.97
2022-09-20T12:12:39.018Z,102056.88
2022-09-20T12:15:22.124Z,102054.63
2022-09-20T12:17:49.656Z,102048.31
2022-09-20T12:20:34.863Z,102045.75
2022-09-20T12:23:38.556Z,102043.22
2022-09-20T12:26:06.302Z,102041.63
2022-09-20T12:28:45.187Z,102044.88
2022-09-20T12:31:31.840Z,102051.22
2022-09-20T12:34:10.769Z,102050.09
2022-09-20T12:36:38.722Z,102049.19
2022-09-20T12:39:22.402Z,102054.78
2022-09-20T12:41:59.777Z,102055.34
2022-09-20T12:44:43.089Z,102060.19
2022-09-20T12:47:12.563Z,102054.31
2022-09-20T12:50:07.830Z,102069.41
2022-09-20T12:52:58.668Z,102069.94
2022-09-20T12:55:46.007Z,102057.47
2022-09-20T12:58:15.474Z,102058.28
2022-09-20T13:00:57.463Z,102052.75
2022-09-20T13:03:36.461Z,102051.00
2022-09-20T13:06:06.609Z,102053.69
2022-09-20T13:08:42.893Z,102056.84
2022-09-20T13:11:19.163Z,102058.78
2022-09-20T13:13:50.561Z,102061.41
2022-09-20T13:16:30.818Z,102058.13
2022-09-20T13:19:22.972Z,102063.22
2022-09-20T13:22:21.035Z,102065.78
2022-09-20T13:24:50.416Z,102067.38
2022-09-20T13:27:22.776Z,102065.13
2022-09-20T13:29:51.060Z,102065.13
2022-09-20T13:32:18.751Z,102061.66
2022-09-20T13:34:48.375Z,102070.34
2022-09-20T13:37:23.682Z,102066.38
2022-09-20T13:39:55.154Z,102067.47
2022-09-20T13:42:22.132Z,102061.38
2022-09-20T13:44:49.450Z,102060.50
2022-09-20T13:47:28.996Z,102065.22
2022-09-20T13:50:16.974Z,102064.88
2022-09-20T13:52:49.415Z,102062.88
2022-09-20T13:55:21.872Z,102061.34
2022-09-20T13:57:48.570Z,102058.19
2022-09-20T14:00:16.153Z,102062.63
2022-09-20T14:02:42.834Z,102061.63
2022-09-20T14:05:18.648Z,102062.09
2022-09-20T14:07:47.271Z,102059.94
2022-09-20T14:10:34.450Z,102060.03
2022-09-20T14:13:06.805Z,102058.72
2022-09-20T14:15:44.399Z,102055.94
2022-09-20T14:18:19.958Z,102051.78
2022-09-20T14:20:46.958Z,102058.56
2022-09-20T14:23:25.612Z,102049.03
2022-09-20T14:26:17.014Z,102049.03
2022-09-20T14:28:44.684Z,102053.31
2022-09-20T14:31:21.523Z,102055.56
2022-09-20T14:33:54.916Z,102050.59
2022-09-20T14:36:25.119Z,102049.00
2022-09-20T14:38:55.633Z,102047.69
2022-09-20T14:41:39.072Z,102047.88
2022-09-20T14:44:17.382Z,102054.78
2022-09-20T14:46:44.406Z,102054.28
2022-09-20T14:49:20.589Z,102067.13
2022-09-20T14:51:48.650Z,102061.22
2022-09-20T14:54:25.698Z,102058.50
2022-09-20T14:56:54.772Z,102059.84
2022-09-20T14:59:36.485Z,102054.84
2022-09-20T15:02:12.346Z,102070.63
2022-09-20T15:04:40.646Z,102061.59
2022-09-20T15:07:11.822Z,102063.53
2022-09-20T15:09:38.646Z,102064.63
2022-09-20T15:12:19.276Z,102062.63
2022-09-20T15:14:46.667Z,102062.09
2022-09-20T15:17:19.600Z,102065.22
2022-09-20T15:19:47.773Z,102062.06
2022-09-20T15:22:15.070Z,102061.34
2022-09-20T15:24:42.155Z,102059.19
2022-09-20T15:27:11.933Z,102056.72
2022-09-20T15:29:38.525Z,102065.66
2022-09-20T15:32:05.952Z,102067.19
2022-09-20T15:34:32.782Z,102059.38
2022-09-20T15:36:59.601Z,102059.47
2022-09-20T15:39:26.162Z,102067.47
2022-09-20T15:41:53.321Z,102053.72
2022-09-20T15:44:20.419Z,102063.59
2022-09-20T15:47:15.420Z,102070.16
2022-09-20T15:49:49.073Z,102067.44
2022-09-20T15:52:16.323Z,102064.34
2022-09-20T15:54:43.448Z,102069.13
2022-09-20T15:57:09.951Z,102072.03
2022-09-20T15:59:36.497Z,102069.75
2022-09-20T16:02:03.353Z,102063.09
2022-09-20T16:04:30.068Z,102066.88
2022-09-20T16:06:56.718Z,102074.88
2022-09-20T16:09:23.327Z,102073.06
2022-09-20T16:11:49.861Z,102068.66
2022-09-20T16:14:16.492Z,102067.03
2022-09-20T16:16:43.266Z,102073.78
2022-09-20T16:19:23.943Z,102076.44
2022-09-20T16:21:58.967Z,102070.09
2022-09-20T16:24:28.423Z,102073.88
2022-09-20T16:26:55.258Z,102071.75
2022-09-20T16:29:22.425Z,102081.09
2022-09-20T16:31:54.050Z,102081.44
2022-09-20T16:34:30.641Z,102086.84
2022-09-20T16:37:01.139Z,102088.19
2022-09-20T16:39:29.363Z,102086.72
2022-09-20T16:42:04.880Z,102084.09
2022-09-20T16:44:33.364Z,102092.59
2022-09-20T16:46:59.977Z,102087.69
2022-09-20T16:49:27.928Z,102088.03
2022-09-20T16:51:54.681Z,102091.63
2022-09-20T16:54:21.577Z,102090.34
2022-09-20T16:56:50.735Z,102093.28
2022-09-20T16:59:21.420Z,102094.81
2022-09-20T17:01:49.038Z,102102.16
2022-09-20T17:04:18.338Z,102100.88
2022-09-20T17:06:45.815Z,102094.84
2022-09-20T17:09:13.857Z,102106.78
2022-09-20T17:11:44.650Z,102097.63
2022-09-20T17:14:12.238Z,102104.16
2022-09-20T17:16:40.562Z,102105.66
2022-09-20T17:19:12.825Z,102108.88
2022-09-20T17:21:43.812Z,102102.84
2022-09-20T17:24:11.017Z,102109.56
2022-09-20T17:26:40.929Z,102109.56
2022-09-20T17:29:10.343Z,102108.75
2022-09-20T17:31:39.719Z,102121.66
2022-09-20T17:34:09.553Z,102121.63
2022-09-20T17:36:42.663Z,102122.91
2022-09-20T17:39:12.267Z,102127.97
2022-09-20T17:41:40.936Z,102126.19
2022-09-20T17:44:10.010Z,102134.81
2022-09-20T17:46:39.360Z,102129.53
2022-09-20T17:49:12.528Z,102135.72
2022-09-20T17:51:45.266Z,102143.06
2022-09-20T17:54:14.011Z,102146.16
2022-09-20T17:56:43.545Z,102148.53
2022-09-20T17:59:11.850Z,102153.41
2022-09-20T18:01:40.504Z,102154.00
2022-09-20T18:04:08.696Z,102158.22
2022-09-20T18:06:35.548Z,102157.34
2022-09-20T18:09:05.399Z,102154.38
2022-09-20T18:11:38.176Z,102154.84
2022-09-20T18:14:07.837Z,102162.66
2022-09-20T18:16:35.211Z,102177.94
2022-09-20T18:19:01.979Z,102172.34
2022-09-20T18:21:31.125Z,102171.97
2022-09-20T18:23:58.163Z,102182.06
2022-09-20T18:26:27.690Z,102185.44
2022-09-20T18:28:57.053Z,102184.56
2022-09-20T18:31:27.161Z,102188.72
2022-09-20T18:33:55.489Z,102192.75
2022-09-20T18:36:25.677Z,102196.91
2022-09-20T18:38:54.973Z,102193.94
2022-09-20T18:41:25.482Z,102197.81
2022-09-20T18:43:53.757Z,102197.75
2022-09-20T18:46:23.721Z,102200.78
2022-09-20T18:48:54.855Z,102202.16
2022-09-20T18:51:22.347Z,102201.63
2022-09-20T18:53:48.979Z,102210.56
2022-09-20T18:56:22.647Z,102209.34
2022-09-20T18:58:54.676Z,102207.88
2022-09-20T19:01:49.567Z,102218.06
2022-09-20T19:04:44.002Z,102215.34
2022-09-20T19:07:13.703Z,102222.91
2022-09-20T19:10:22.486Z,102227.59
2022-09-20T19:13:04.601Z,102228.31
2022-09-20T19:15:45.621Z,102225.97
2022-09-20T19:18:35.479Z,102224.78
2022-09-20T19:21:14.270Z,102236.56
2022-09-20T19:24:08.238Z,102235.22
2022-09-20T19:26:38.728Z,102236.59
2022-09-20T19:29:20.050Z,102235.41
2022-09-20T19:31:52.155Z,102239.38
2022-09-20T19:34:27.180Z,102242.56
2022-09-20T19:37:18.837Z,102243.81
2022-09-20T19:39:51.600Z,102245.84
2022-09-20T19:42:44.027Z,102242.84
2022-09-20T19:45:22.127Z,102238.38
2022-09-20T19:48:07.533Z,102245.59
2022-09-20T19:50:48.796Z,102248.34
2022-09-20T19:53:22.416Z,102248.09
2022-09-20T19:56:24.773Z,102256.41
2022-09-20T19:58:55.069Z,102258.59
2022-09-20T20:01:26.150Z,102258.03
2022-09-20T20:03:54.126Z,102259.28
2022-09-20T20:06:30.556Z,102260.50
2022-09-20T20:09:21.681Z,102259.28
2022-09-20T20:12:25.709Z,102260.78
2022-09-20T20:15:10.906Z,102262.13
2022-09-20T20:18:31.704Z,102266.09
2022-09-20T20:20:59.166Z,102272.50
2022-09-20T20:24:09.060Z,102267.72
2022-09-20T20:26:36.011Z,102271.28
2022-09-20T20:29:02.598Z,102268.00
2022-09-20T20:31:30.316Z,102280.41
2022-09-20T20:33:57.263Z,102287.25
2022-09-20T20:36:23.811Z,102284.34
2022-09-20T20:38:52.672Z,102288.56
2022-09-20T20:41:21.466Z,102290.03
2022-09-20T20:43:52.020Z,102298.78
2022-09-20T20:46:19.781Z,102296.56
2022-09-20T20:48:47.860Z,102301.47
2022-09-20T20:51:19.800Z,102301.84
2022-09-20T20:53:49.130Z,102301.28
2022-09-20T20:56:27.750Z,102302.81
2022-09-20T20:59:00.895Z,102295.28
2022-09-20T21:01:43.515Z,102307.94
2022-09-20T21:04:11.402Z,102307.25
2022-09-20T21:06:40.740Z,102307.25
2022-09-20T21:09:11.464Z,102310.38
2022-09-20T21:11:43.199Z,102307.56
2022-09-20T21:14:10.707Z,102310.56
2022-09-20T21:16:40.867Z,102307.16
2022-09-20T21:19:09.488Z,102312.84
2022-09-20T21:21:42.678Z,102322.91
2022-09-20T21:24:12.221Z,102328.34
2022-09-20T21:26:40.326Z,102326.72
2022-09-20T21:29:09.974Z,102326.13
2022-09-20T21:31:38.717Z,102332.38
2022-09-20T21:34:06.847Z,102334.28
2022-09-20T21:36:34.286Z,102336.78
2022-09-20T21:39:01.062Z,102340.69
2022-09-20T21:41:30.425Z,102335.69
2022-09-20T21:44:00.179Z,102336.75
2022-09-20T21:46:40.439Z,102342.31
2022-09-20T21:49:11.781Z,102347.19
2022-09-20T21:51:41.407Z,102348.25
2022-09-20T21:54:09.065Z,102343.06
2022-09-20T21:56:37.210Z,102354.41
2022-09-20T21:59:06.400Z,102355.47
2022-09-20T22:01:35.922Z,102357.59
2022-09-20T22:04:10.945Z,102353.63
2022-09-20T22:06:46.313Z,102353.97
2022-09-20T22:09:15.553Z,102358.56
2022-09-20T22:11:44.964Z,102359.53
2022-09-20T22:14:13.530Z,102359.75
2022-09-20T22:16:41.909Z,102358.47
2022-09-20T22:19:10.386Z,102358.75
2022-09-20T22:21:40.010Z,102357.06
2022-09-20T22:24:12.054Z,102361.69
2022-09-20T22:26:48.305Z,102358.50
2022-09-20T22:29:15.180Z,102352.53
2022-09-20T22:31:47.480Z,102354.50
2022-09-20T22:34:17.077Z,102353.22
2022-09-20T22:36:44.622Z,102348.28
2022-09-20T22:39:12.633Z,102349.34
2022-09-20T22:41:41.416Z,102350.66
2022-09-20T22:44:08.533Z,102355.00
2022-09-20T22:46:35.813Z,102365.72
2022-09-20T22:49:05.900Z,102357.38
2022-09-20T22:51:33.644Z,102354.09
2022-09-20T22:54:04.723Z,102362.78
2022-09-20T22:56:31.794Z,102358.44
2022-09-20T22:59:02.974Z,102361.00
2022-09-20T23:01:31.868Z,102365.84
2022-09-20T23:04:01.087Z,102360.91
2022-09-20T23:06:30.846Z,102361.03
2022-09-20T23:09:00.516Z,102363.13
2022-09-20T23:11:28.663Z,102361.59
2022-09-20T23:14:00.971Z,102360.91
2022-09-20T23:16:30.521Z,102359.97
2022-09-20T23:18:59.583Z,102367.13
2022-09-20T23:21:27.212Z,102363.97
2022-09-20T23:23:56.139Z,102366.91
2022-09-20T23:26:23.531Z,102365.38
2022-09-20T23:28:56.810Z,102361.25
2022-09-20T23:31:24.421Z,102365.94
2022-09-20T23:33:57.002Z,102363.56
2022-09-20T23:36:25.283Z,102360.19
2022-09-20T23:38:52.024Z,102367.00
2022-09-20T23:41:23.221Z,102363.94
2022-09-20T23:43:50.055Z,102372.03
2022-09-20T23:46:18.404Z,102373.91
2022-09-20T23:48:45.530Z,102364.88
2022-09-20T23:51:17.248Z,102368.38
2022-09-20T23:53:44.565Z,102366.00
2022-09-20T23:56:12.604Z,102371.44
2022-09-20T23:58:42.077Z,102366.47
